createdAt,value
2019-06-20T00:00:38.150Z,6.65
2019-06-20T00:03:06.747Z,6.07
2019-06-20T00:05:38.288Z,4.43
2019-06-20T00:08:06.727Z,3.93
2019-06-20T00:10:35.178Z,4.33
2019-06-20T00:13:04.000Z,5.40
2019-06-20T00:15:32.444Z,4.47
2019-06-20T00:18:00.858Z,5.63
2019-06-20T00:20:29.331Z,4.30
2019-06-20T00:22:57.797Z,7.40
2019-06-20T00:25:26.304Z,4.37
2019-06-20T00:27:54.798Z,4.67
2019-06-20T00:30:23.198Z,5.03
2019-06-20T00:32:51.629Z,3.77
2019-06-20T00:35:20.049Z,4.20
2019-06-20T00:37:48.503Z,9.23
2019-06-20T00:40:17.281Z,5.93
2019-06-20T00:42:45.715Z,4.50
2019-06-20T00:45:14.485Z,5.10
2019-06-20T00:47:42.934Z,7.93
2019-06-20T00:50:11.827Z,5.40
2019-06-20T00:52:40.233Z,9.30
2019-06-20T00:55:08.811Z,9.53
2019-06-20T00:57:37.319Z,7.60
2019-06-20T01:00:08.066Z,5.93
2019-06-20T01:02:36.512Z,6.43
2019-06-20T01:05:08.808Z,6.47
2019-06-20T01:07:37.251Z,6.40
2019-06-20T01:10:09.151Z,8.23
2019-06-20T01:12:37.564Z,6.53
2019-06-20T01:15:07.940Z,8.57
2019-06-20T01:17:36.552Z,7.53
2019-06-20T01:20:07.171Z,10.00
2019-06-20T01:22:35.625Z,7.50
2019-06-20T01:25:06.096Z,12.63
2019-06-20T01:27:34.774Z,17.60
2019-06-20T01:30:03.662Z,10.83
2019-06-20T01:32:32.098Z,7.60
2019-06-20T01:35:00.507Z,13.70
2019-06-20T01:37:28.966Z,8.30
2019-06-20T01:39:57.425Z,8.23
2019-06-20T01:42:25.871Z,10.83
2019-06-20T01:44:54.289Z,11.90
2019-06-20T01:47:22.869Z,10.03
2019-06-20T01:49:51.320Z,12.07
2019-06-20T01:52:19.764Z,18.57
2019-06-20T01:54:48.213Z,12.57
2019-06-20T01:57:16.656Z,9.80
2019-06-20T01:59:45.079Z,14.83
2019-06-20T02:02:13.529Z,12.40
2019-06-20T02:04:41.987Z,12.73
2019-06-20T02:07:10.422Z,10.20
2019-06-20T02:09:38.906Z,17.10
2019-06-20T02:12:07.388Z,12.13
2019-06-20T02:14:35.844Z,10.40
2019-06-20T02:17:04.387Z,13.33
2019-06-20T02:19:32.836Z,10.40
2019-06-20T02:22:01.373Z,13.80
2019-06-20T02:24:32.833Z,12.43
2019-06-20T02:27:01.528Z,10.83
2019-06-20T02:29:30.068Z,12.27
2019-06-20T02:31:58.540Z,10.40
2019-06-20T02:34:26.986Z,13.33
2019-06-20T02:36:55.424Z,13.23
2019-06-20T02:39:26.003Z,16.20
2019-06-20T02:41:54.441Z,14.73
2019-06-20T02:44:29.941Z,14.73
2019-06-20T02:46:53.059Z,13.47
2019-06-20T02:49:21.521Z,13.47
2019-06-20T02:51:50.497Z,14.37
2019-06-20T02:54:19.092Z,13.40
2019-06-20T02:56:47.510Z,19.97
2019-06-20T02:59:15.988Z,12.83
2019-06-20T03:01:44.449Z,20.37
2019-06-20T03:04:12.878Z,10.97
2019-06-20T03:06:41.495Z,13.73
2019-06-20T03:09:09.943Z,14.10
2019-06-20T03:11:38.377Z,11.03
2019-06-20T03:14:09.852Z,9.93
2019-06-20T03:16:38.306Z,19.17
2019-06-20T03:19:06.783Z,19.90
2019-06-20T03:21:35.181Z,9.63
2019-06-20T03:24:03.640Z,10.03
2019-06-20T03:26:32.085Z,11.87
2019-06-20T03:29:00.558Z,12.00
2019-06-20T03:31:29.013Z,9.20
2019-06-20T03:33:57.500Z,9.30
2019-06-20T03:36:25.919Z,9.30
2019-06-20T03:38:54.378Z,10.03
2019-06-20T03:41:22.912Z,10.00
2019-06-20T03:43:53.911Z,8.53
2019-06-20T03:46:22.326Z,8.80
2019-06-20T03:48:50.764Z,8.17
2019-06-20T03:51:19.176Z,8.10
2019-06-20T03:53:47.606Z,19.03
2019-06-20T03:56:17.699Z,9.63
2019-06-20T03:58:46.142Z,10.73
2019-06-20T04:01:14.590Z,15.57
2019-06-20T04:03:43.002Z,8.90
2019-06-20T04:06:11.516Z,12.50
2019-06-20T04:08:40.042Z,11.23
2019-06-20T04:11:09.984Z,9.60
2019-06-20T04:13:38.421Z,7.70
2019-06-20T04:16:08.501Z,11.27
2019-06-20T04:18:37.135Z,10.00
2019-06-20T04:21:05.668Z,9.13
2019-06-20T04:23:34.102Z,15.30
2019-06-20T04:26:02.561Z,11.90
2019-06-20T04:28:31.017Z,11.20
2019-06-20T04:31:01.280Z,6.97
2019-06-20T04:33:29.702Z,49.33
2019-06-20T04:35:58.146Z,8.33
2019-06-20T04:38:26.568Z,10.83
2019-06-20T04:40:55.030Z,7.80
2019-06-20T04:43:23.534Z,8.53
2019-06-20T04:45:56.384Z,8.53
2019-06-20T04:48:27.534Z,12.90
2019-06-20T04:50:55.952Z,17.00
2019-06-20T04:53:24.504Z,10.50
2019-06-20T04:55:52.943Z,13.23
2019-06-20T05:01:12.724Z,8.50
2019-06-20T05:03:41.174Z,10.50
2019-06-20T05:06:09.614Z,13.50
2019-06-20T05:08:40.000Z,14.70
2019-06-20T05:11:08.396Z,19.40
2019-06-20T05:13:36.886Z,10.20
2019-06-20T05:16:05.374Z,13.70
2019-06-20T05:18:33.823Z,15.43
2019-06-20T05:21:02.244Z,17.90
2019-06-20T05:23:30.678Z,14.70
2019-06-20T05:25:59.196Z,15.67
2019-06-20T05:28:27.657Z,10.77
2019-06-20T05:30:56.357Z,12.60
2019-06-20T05:33:28.803Z,13.87
2019-06-20T05:35:57.273Z,20.30
2019-06-20T05:38:25.699Z,19.50
2019-06-20T05:40:54.182Z,18.37
2019-06-20T05:43:22.573Z,22.00
2019-06-20T05:45:51.050Z,19.57
2019-06-20T05:48:19.488Z,24.13
2019-06-20T05:50:48.635Z,21.03
2019-06-20T05:53:17.135Z,22.90
2019-06-20T05:55:45.624Z,22.43
2019-06-20T05:58:14.036Z,24.70
2019-06-20T06:00:42.521Z,25.80
2019-06-20T06:03:13.661Z,29.10
2019-06-20T06:05:41.210Z,24.80
2019-06-20T06:08:09.685Z,27.50
2019-06-20T06:10:38.086Z,23.37
2019-06-20T06:13:06.518Z,38.03
2019-06-20T06:15:35.015Z,35.27
2019-06-20T06:18:03.446Z,39.97
2019-06-20T06:20:31.893Z,40.10
2019-06-20T06:23:00.478Z,39.17
2019-06-20T06:25:29.073Z,40.17
2019-06-20T06:28:00.334Z,40.10
2019-06-20T06:30:30.313Z,39.70
2019-06-20T06:33:01.644Z,40.33
2019-06-20T06:35:30.465Z,39.87
2019-06-20T06:38:01.720Z,35.27
2019-06-20T06:40:30.647Z,33.37
2019-06-20T06:42:59.152Z,34.70
2019-06-20T06:45:29.186Z,33.83
2019-06-20T06:47:58.669Z,29.17
2019-06-20T06:50:30.432Z,41.07
2019-06-20T06:52:58.931Z,32.90
2019-06-20T06:55:27.920Z,34.53
2019-06-20T06:57:59.303Z,47.03
2019-06-20T07:00:29.177Z,36.83
2019-06-20T07:02:57.611Z,41.63
2019-06-20T07:05:27.483Z,37.00
2019-06-20T07:07:59.620Z,38.70
2019-06-20T07:10:28.339Z,38.40
2019-06-20T07:12:56.819Z,41.00
2019-06-20T07:15:26.996Z,43.07
2019-06-20T07:17:55.576Z,43.00
2019-06-20T07:20:28.661Z,42.87
2019-06-20T07:22:58.702Z,40.30
2019-06-20T07:25:41.344Z,44.33
2019-06-20T07:28:13.128Z,36.70
2019-06-20T07:30:41.957Z,39.63
2019-06-20T07:33:17.950Z,55.77
2019-06-20T07:35:46.626Z,42.07
2019-06-20T07:38:22.943Z,41.47
2019-06-20T07:40:56.483Z,44.07
2019-06-20T07:43:31.465Z,39.20
2019-06-20T07:46:03.031Z,48.20
2019-06-20T07:48:32.232Z,36.70
2019-06-20T07:51:01.003Z,47.40
2019-06-20T07:53:34.011Z,40.93
2019-06-20T07:56:02.609Z,41.37
2019-06-20T07:58:32.773Z,38.33
2019-06-20T08:01:12.896Z,43.03
2019-06-20T08:03:36.953Z,34.47
2019-06-20T08:06:05.438Z,40.57
2019-06-20T08:08:35.670Z,35.60
2019-06-20T08:11:04.384Z,41.90
2019-06-20T08:13:32.993Z,37.10
2019-06-20T08:16:03.791Z,32.63
2019-06-20T08:18:31.698Z,37.27
2019-06-20T08:21:00.128Z,32.33
2019-06-20T08:23:28.561Z,35.80
2019-06-20T08:25:57.526Z,32.50
2019-06-20T08:28:27.824Z,31.77
2019-06-20T08:30:57.374Z,33.10
2019-06-20T08:33:26.823Z,31.73
2019-06-20T08:35:56.966Z,30.87
2019-06-20T08:38:25.474Z,29.70
2019-06-20T08:40:54.003Z,29.40
2019-06-20T08:43:22.423Z,21.93
2019-06-20T08:45:50.857Z,20.87
2019-06-20T08:48:19.326Z,21.23
2019-06-20T08:50:47.738Z,17.60
2019-06-20T08:53:16.318Z,19.97
2019-06-20T08:55:44.796Z,25.77
2019-06-20T08:58:13.236Z,21.27
2019-06-20T09:00:41.899Z,19.20
2019-06-20T09:03:10.645Z,17.37
2019-06-20T09:05:39.066Z,20.70
2019-06-20T09:08:11.215Z,25.20
2019-06-20T09:10:40.187Z,22.57
2019-06-20T09:13:09.882Z,18.83
2019-06-20T09:15:38.532Z,23.23
2019-06-20T09:18:07.780Z,18.50
2019-06-20T09:20:36.722Z,19.47
2019-06-20T09:23:05.750Z,20.73
2019-06-20T09:25:34.399Z,18.57
2019-06-20T09:28:03.226Z,17.97
2019-06-20T09:30:31.882Z,18.12
2019-06-20T09:33:00.293Z,26.80
2019-06-20T09:35:28.719Z,17.77
2019-06-20T09:37:57.423Z,24.50
2019-06-20T09:40:26.022Z,19.30
2019-06-20T09:42:54.553Z,25.47
2019-06-20T09:45:23.548Z,20.83
2019-06-20T09:47:52.236Z,15.93
2019-06-20T09:50:21.329Z,21.67
2019-06-20T09:52:51.387Z,24.77
2019-06-20T09:55:20.163Z,19.00
2019-06-20T09:57:50.257Z,19.47
2019-06-20T10:00:21.838Z,17.47
2019-06-20T10:02:51.793Z,16.10
2019-06-20T10:05:20.681Z,17.30
2019-06-20T10:07:50.273Z,20.20
2019-06-20T10:10:19.223Z,23.10
2019-06-20T10:12:47.959Z,18.80
2019-06-20T10:15:25.459Z,17.83
2019-06-20T10:17:54.509Z,15.30
2019-06-20T10:20:23.838Z,16.03
2019-06-20T10:22:53.124Z,18.60
2019-06-20T10:25:21.848Z,15.43
2019-06-20T10:27:51.397Z,16.53
2019-06-20T10:30:22.131Z,18.57
2019-06-20T10:32:51.097Z,15.40
2019-06-20T10:35:20.048Z,15.83
2019-06-20T10:37:48.628Z,15.43
2019-06-20T10:40:18.693Z,15.23
2019-06-20T10:42:48.089Z,14.30
2019-06-20T10:45:19.271Z,14.37
2019-06-20T10:47:48.979Z,14.43
2019-06-20T10:50:19.323Z,12.93
2019-06-20T10:52:48.169Z,13.23
2019-06-20T10:55:17.511Z,14.90
2019-06-20T10:57:46.773Z,12.77
2019-06-20T11:00:29.707Z,13.40
2019-06-20T11:02:47.061Z,21.60
2019-06-20T11:05:17.253Z,13.90
2019-06-20T11:07:45.762Z,16.73
2019-06-20T11:10:16.284Z,18.20
2019-06-20T11:12:52.239Z,18.90
2019-06-20T11:15:15.693Z,16.93
2019-06-20T11:17:44.314Z,13.33
2019-06-20T11:20:13.282Z,18.23
2019-06-20T11:22:43.342Z,15.27
2019-06-20T11:25:18.974Z,13.50
2019-06-20T11:27:47.317Z,12.77
2019-06-20T11:30:24.350Z,19.13
2019-06-20T11:32:52.780Z,13.17
2019-06-20T11:35:21.207Z,16.60
2019-06-20T11:37:49.637Z,20.03
2019-06-20T11:40:18.548Z,12.27
2019-06-20T11:42:47.067Z,15.13
2019-06-20T11:45:17.480Z,18.83
2019-06-20T11:47:47.321Z,13.00
2019-06-20T11:50:16.932Z,11.63
2019-06-20T11:52:45.993Z,13.10
2019-06-20T11:55:15.729Z,10.50
2019-06-20T11:57:44.327Z,12.80
2019-06-20T12:00:13.676Z,12.17
2019-06-20T12:02:43.956Z,11.03
2019-06-20T12:05:13.805Z,13.33
2019-06-20T12:07:43.701Z,17.10
2019-06-20T12:10:14.339Z,19.63
2019-06-20T12:12:42.783Z,14.77
2019-06-20T12:15:11.946Z,12.57
2019-06-20T12:17:41.721Z,11.93
2019-06-20T12:20:12.610Z,13.00
2019-06-20T12:22:41.729Z,18.50
2019-06-20T12:25:13.132Z,12.13
2019-06-20T12:27:42.962Z,15.30
2019-06-20T12:30:14.033Z,15.33
2019-06-20T12:32:42.594Z,10.57
2019-06-20T12:35:11.741Z,11.03
2019-06-20T12:37:40.580Z,9.63
2019-06-20T12:40:11.616Z,16.00
2019-06-20T12:42:41.803Z,9.90
2019-06-20T12:45:11.888Z,8.07
2019-06-20T12:47:41.790Z,11.30
2019-06-20T12:50:10.772Z,10.80
2019-06-20T12:52:42.628Z,10.03
2019-06-20T12:55:12.219Z,9.00
2019-06-20T12:57:42.136Z,11.13
2019-06-20T13:00:12.370Z,10.00
2019-06-20T13:02:41.949Z,9.83
2019-06-20T13:05:11.650Z,8.73
2019-06-20T13:07:40.699Z,10.60
2019-06-20T13:10:11.174Z,9.90
2019-06-20T13:12:42.696Z,8.70
2019-06-20T13:15:13.151Z,7.43
2019-06-20T13:17:43.619Z,11.03
2019-06-20T13:20:16.050Z,7.93
2019-06-20T13:22:49.347Z,9.90
2019-06-20T13:25:17.437Z,8.30
2019-06-20T13:27:45.997Z,10.53
2019-06-20T13:30:14.914Z,8.93
2019-06-20T13:32:45.229Z,9.87
2019-06-20T13:35:14.386Z,9.70
2019-06-20T13:37:43.483Z,9.20
2019-06-20T13:40:13.547Z,11.67
2019-06-20T13:42:43.947Z,6.60
2019-06-20T13:45:15.274Z,9.90
2019-06-20T13:47:43.724Z,10.80
2019-06-20T13:50:12.297Z,8.93
2019-06-20T13:52:43.544Z,13.70
2019-06-20T13:55:10.938Z,9.80
2019-06-20T13:57:41.218Z,9.20
2019-06-20T14:00:10.893Z,12.23
2019-06-20T14:02:41.041Z,14.83
2019-06-20T14:05:10.348Z,12.70
2019-06-20T14:07:48.316Z,9.70
2019-06-20T14:10:19.438Z,10.30
2019-06-20T14:12:48.772Z,14.90
2019-06-20T14:15:18.715Z,10.07
2019-06-20T14:17:47.487Z,9.73
2019-06-20T14:20:18.545Z,9.57
2019-06-20T14:22:46.947Z,8.97
2019-06-20T14:25:15.780Z,10.60
2019-06-20T14:27:46.041Z,10.03
2019-06-20T14:30:16.705Z,9.73
2019-06-20T14:32:47.487Z,13.83
2019-06-20T14:35:16.081Z,11.53
2019-06-20T14:37:46.100Z,11.63
2019-06-20T14:40:15.900Z,12.60
2019-06-20T14:42:46.004Z,18.37
2019-06-20T14:45:15.188Z,11.13
2019-06-20T14:47:43.845Z,15.47
2019-06-20T14:50:20.346Z,8.10
2019-06-20T14:52:50.032Z,9.30
2019-06-20T14:55:19.278Z,14.27
2019-06-20T14:57:48.520Z,9.33
2019-06-20T15:00:18.616Z,8.07
2019-06-20T15:02:48.019Z,11.87
2019-06-20T15:05:24.524Z,10.50
2019-06-20T15:07:57.358Z,10.00
2019-06-20T15:10:25.736Z,9.60
2019-06-20T15:13:04.482Z,7.60
2019-06-20T15:15:32.885Z,6.27
2019-06-20T15:18:01.312Z,5.90
2019-06-20T15:20:29.736Z,12.10
2019-06-20T15:22:58.154Z,7.27
2019-06-20T15:25:26.694Z,12.93
2019-06-20T15:27:55.793Z,12.90
2019-06-20T15:30:25.547Z,15.87
2019-06-20T15:33:05.798Z,12.73
2019-06-20T15:35:31.162Z,12.70
2019-06-20T15:37:59.641Z,10.93
2019-06-20T15:40:36.892Z,13.40
2019-06-20T15:43:05.341Z,17.70
2019-06-20T15:45:33.759Z,11.97
2019-06-20T15:48:02.220Z,15.80
2019-06-20T15:50:30.635Z,11.47
2019-06-20T15:52:59.062Z,9.07
2019-06-20T15:55:27.475Z,9.03
2019-06-20T15:57:56.073Z,9.73
2019-06-20T16:00:25.561Z,7.50
2019-06-20T16:03:05.928Z,7.80
2019-06-20T16:05:24.109Z,9.17
2019-06-20T16:07:52.558Z,10.20
2019-06-20T16:10:29.673Z,11.90
2019-06-20T16:13:10.086Z,15.73
2019-06-20T16:15:38.496Z,18.60
2019-06-20T16:18:10.012Z,17.97
2019-06-20T16:20:38.446Z,11.90
2019-06-20T16:23:06.891Z,11.93
2019-06-20T16:25:35.325Z,12.20
2019-06-20T16:28:03.787Z,11.57
2019-06-20T16:30:33.911Z,7.57
2019-06-20T16:33:02.444Z,10.43
2019-06-20T16:35:30.878Z,15.70
2019-06-20T16:38:00.860Z,10.50
2019-06-20T16:40:32.309Z,10.43
2019-06-20T16:43:00.741Z,10.03
2019-06-20T16:45:31.295Z,10.33
2019-06-20T16:48:01.316Z,11.63
2019-06-20T16:50:34.940Z,9.97
2019-06-20T16:53:03.248Z,13.50
2019-06-20T16:55:33.613Z,14.80
2019-06-20T16:58:05.596Z,11.73
2019-06-20T17:00:40.073Z,16.67
2019-06-20T17:03:08.653Z,16.60
2019-06-20T17:05:38.637Z,13.83
2019-06-20T17:08:07.112Z,12.27
2019-06-20T17:10:39.440Z,11.70
2019-06-20T17:13:14.021Z,12.70
2019-06-20T17:15:42.449Z,12.40
2019-06-20T17:18:10.856Z,7.13
2019-06-20T17:20:39.347Z,11.70
2019-06-20T17:23:11.888Z,10.60
2019-06-20T17:25:40.327Z,12.70
2019-06-20T17:28:14.528Z,8.47
2019-06-20T17:30:42.998Z,7.97
2019-06-20T17:33:11.446Z,7.90
2019-06-20T17:35:39.867Z,12.20
2019-06-20T17:38:08.335Z,10.07
2019-06-20T17:40:36.922Z,8.63
2019-06-20T17:43:05.373Z,8.33
2019-06-20T17:45:42.461Z,7.57
2019-06-20T17:48:16.883Z,9.27
2019-06-20T17:50:45.303Z,8.57
2019-06-20T17:53:13.736Z,10.60
2019-06-20T17:55:42.582Z,10.03
2019-06-20T17:58:19.417Z,7.37
2019-06-20T18:00:45.186Z,10.00
2019-06-20T18:03:13.659Z,10.23
2019-06-20T18:05:42.442Z,10.67
2019-06-20T18:08:15.057Z,9.83
2019-06-20T18:10:41.017Z,9.00
2019-06-20T18:13:09.450Z,9.77
2019-06-20T18:15:37.872Z,8.07
2019-06-20T18:18:06.334Z,14.80
2019-06-20T18:20:34.732Z,16.53
2019-06-20T18:23:03.209Z,10.30
2019-06-20T18:25:31.900Z,11.80
2019-06-20T18:28:01.271Z,10.80
2019-06-20T18:30:41.359Z,15.93
2019-06-20T18:33:11.493Z,10.80
2019-06-20T18:35:39.876Z,12.87
2019-06-20T18:38:08.298Z,12.07
2019-06-20T18:40:36.943Z,19.70
2019-06-20T18:43:05.474Z,12.47
2019-06-20T18:45:33.963Z,17.70
2019-06-20T18:48:05.504Z,11.97
2019-06-20T18:50:34.185Z,11.10
2019-06-20T18:53:02.664Z,11.40
2019-06-20T18:55:31.130Z,9.80
2019-06-20T18:57:59.628Z,12.67
2019-06-20T19:00:34.648Z,9.57
2019-06-20T19:02:58.997Z,10.97
2019-06-20T19:05:31.884Z,10.07
2019-06-20T19:08:00.293Z,9.63
2019-06-20T19:10:29.043Z,12.37
2019-06-20T19:12:57.620Z,10.03
2019-06-20T19:15:29.351Z,11.37
2019-06-20T19:17:57.904Z,13.10
2019-06-20T19:20:29.826Z,13.73
2019-06-20T19:22:58.645Z,11.63
2019-06-20T19:25:27.147Z,11.67
2019-06-20T19:27:55.669Z,11.20
2019-06-20T19:30:41.922Z,11.07
2019-06-20T19:33:11.301Z,13.73
2019-06-20T19:35:39.907Z,11.50
2019-06-20T19:38:08.330Z,11.53
2019-06-20T19:40:40.097Z,11.33
2019-06-20T19:43:08.578Z,11.90
2019-06-20T19:45:37.381Z,13.27
2019-06-20T19:48:06.180Z,14.67
2019-06-20T19:50:34.686Z,12.40
2019-06-20T19:53:03.222Z,15.40
2019-06-20T19:55:31.943Z,12.33
2019-06-20T19:58:00.361Z,9.27
2019-06-20T20:00:29.067Z,12.20
2019-06-20T20:02:57.824Z,8.93
2019-06-20T20:05:26.321Z,11.77
2019-06-20T20:07:58.469Z,17.50
2019-06-20T20:10:47.954Z,13.30
2019-06-20T20:13:17.518Z,13.73
2019-06-20T20:15:46.578Z,13.37
2019-06-20T20:18:16.036Z,16.47
2019-06-20T20:20:47.534Z,17.47
2019-06-20T20:23:16.195Z,19.67
2019-06-20T20:25:44.802Z,13.13
2019-06-20T20:28:13.268Z,19.10
2019-06-20T20:30:41.857Z,14.80
2019-06-20T20:33:10.358Z,12.83
2019-06-20T20:35:41.035Z,12.70
2019-06-20T20:38:09.533Z,14.70
2019-06-20T20:40:37.956Z,10.53
2019-06-20T20:43:06.715Z,10.43
2019-06-20T20:45:35.234Z,11.97
2019-06-20T20:48:03.669Z,8.20
2019-06-20T20:50:40.822Z,7.83
2019-06-20T20:53:09.225Z,8.80
2019-06-20T20:55:37.644Z,11.07
2019-06-20T20:58:06.061Z,9.90
2019-06-20T21:00:40.641Z,10.17
2019-06-20T21:03:09.153Z,12.60
2019-06-20T21:05:50.705Z,10.40
2019-06-20T21:08:07.779Z,13.57
2019-06-20T21:10:36.223Z,10.63
2019-06-20T21:13:04.702Z,10.53
2019-06-20T21:15:33.113Z,10.53
2019-06-20T21:18:01.532Z,10.93
2019-06-20T21:20:29.978Z,11.30
2019-06-20T21:22:58.413Z,11.60
2019-06-20T21:25:26.903Z,12.17
2019-06-20T21:27:55.297Z,11.20
2019-06-20T21:30:24.081Z,9.90
2019-06-20T21:32:52.508Z,12.00
2019-06-20T21:35:20.943Z,13.97
2019-06-20T21:37:49.366Z,11.80
2019-06-20T21:40:18.753Z,13.30
2019-06-20T21:42:47.179Z,14.60
2019-06-20T21:45:16.773Z,19.10
2019-06-20T21:47:45.224Z,15.43
2019-06-20T21:50:14.993Z,13.10
2019-06-20T21:52:43.403Z,16.20
2019-06-20T21:55:12.179Z,16.53
2019-06-20T21:57:40.598Z,16.90
2019-06-20T22:00:25.342Z,14.60
2019-06-20T22:02:53.929Z,20.17
2019-06-20T22:05:22.533Z,19.93
2019-06-20T22:07:51.037Z,21.90
2019-06-20T22:10:19.782Z,17.03
2019-06-20T22:12:48.204Z,16.43
2019-06-20T22:15:16.791Z,20.47
2019-06-20T22:17:45.230Z,24.37
2019-06-20T22:20:15.180Z,20.00
2019-06-20T22:22:43.646Z,20.90
2019-06-20T22:25:12.605Z,23.30
2019-06-20T22:27:41.097Z,23.43
2019-06-20T22:30:13.714Z,27.53
2019-06-20T22:32:42.177Z,24.77
2019-06-20T22:35:11.729Z,24.77
2019-06-20T22:37:41.607Z,24.93
2019-06-20T22:40:12.571Z,24.70
2019-06-20T22:42:41.009Z,24.10
2019-06-20T22:45:10.956Z,23.17
2019-06-20T22:47:39.378Z,28.60
2019-06-20T22:50:08.932Z,26.53
2019-06-20T22:52:38.308Z,25.80
2019-06-20T22:55:06.947Z,27.53
2019-06-20T22:57:35.388Z,29.00
2019-06-20T23:00:07.188Z,29.10
2019-06-20T23:02:35.637Z,36.70
2019-06-20T23:05:05.521Z,33.60
2019-06-20T23:07:33.973Z,29.43
2019-06-20T23:10:25.026Z,33.27
2019-06-20T23:12:55.173Z,34.90
2019-06-20T23:15:23.769Z,33.23
2019-06-20T23:17:52.285Z,31.87
2019-06-20T23:20:20.964Z,31.47
2019-06-20T23:22:49.374Z,31.97
2019-06-20T23:25:18.155Z,34.23
2019-06-20T23:27:46.621Z,38.13
2019-06-20T23:30:15.885Z,31.90
2019-06-20T23:32:44.462Z,37.90
2019-06-20T23:35:12.966Z,30.60
2019-06-20T23:37:41.388Z,27.57
2019-06-20T23:40:11.087Z,23.93
2019-06-20T23:42:39.481Z,23.90
2019-06-20T23:45:09.458Z,21.60
2019-06-20T23:47:37.949Z,22.93
2019-06-20T23:50:07.228Z,16.97
2019-06-20T23:52:45.877Z,18.57
2019-06-20T23:55:14.319Z,15.97
2019-06-20T23:57:42.721Z,17.10
